Terminal Aerodrome Forecast
Issued by NWS

Home | Current Version | Previous Version | Graphics & Text | Print | Product List | Glossary On
Versions: 1 2 3 4 5 6 7 8 9 10 11 12 13 14
000
FTUS43 KUNR 221700
TAFGCC
TAF
KGCC 221720Z 2218/2318 17015KT P6SM SCT100 BKN250
     FM222000 25013KT P6SM SCT100 SCT250
     FM231300 31010KT P6SM SKC=

USA.gov is the U.S. government's official web portal to all federal, state and local government web resources and services.